createdAt,value
2023-01-23T00:01:58.009Z,102856.34
2023-01-23T00:04:27.874Z,102851.72
2023-01-23T00:06:57.756Z,102853.41
2023-01-23T00:09:27.424Z,102854.66
2023-01-23T00:11:57.881Z,102862.63
2023-01-23T00:14:27.703Z,102856.50
2023-01-23T00:16:55.447Z,102857.16
2023-01-23T00:19:24.386Z,102851.47
2023-01-23T00:21:52.310Z,102860.50
2023-01-23T00:24:20.765Z,102862.00
2023-01-23T00:26:49.292Z,102855.25
2023-01-23T00:29:17.683Z,102858.16
2023-01-23T00:31:46.298Z,102852.31
2023-01-23T00:34:15.883Z,102855.88
2023-01-23T00:36:45.121Z,102846.63
2023-01-23T00:39:20.794Z,102853.13
2023-01-23T00:41:50.744Z,102857.75
2023-01-23T00:44:20.835Z,102862.59
2023-01-23T00:46:50.856Z,102861.81
2023-01-23T00:49:23.195Z,102859.28
2023-01-23T00:51:54.443Z,102864.72
2023-01-23T00:54:26.018Z,102875.47
2023-01-23T00:56:57.449Z,102865.53
2023-01-23T00:59:26.004Z,102865.78
2023-01-23T01:01:56.108Z,102870.44
2023-01-23T01:04:26.127Z,102877.75
2023-01-23T01:06:55.853Z,102867.88
2023-01-23T01:09:24.962Z,102874.34
2023-01-23T01:11:52.897Z,102883.00
2023-01-23T01:14:21.324Z,102884.97
2023-01-23T01:16:49.727Z,102886.66
2023-01-23T01:19:19.249Z,102888.75
2023-01-23T01:21:48.062Z,102884.28
2023-01-23T01:24:18.194Z,102884.66
2023-01-23T01:26:46.543Z,102883.38
2023-01-23T01:29:15.102Z,102884.47
2023-01-23T01:31:43.582Z,102895.63
2023-01-23T01:34:12.893Z,102895.41
2023-01-23T01:36:40.683Z,102903.69
2023-01-23T01:39:08.914Z,102906.56
2023-01-23T01:41:37.339Z,102912.19
2023-01-23T01:44:05.879Z,102910.31
2023-01-23T01:46:34.453Z,102920.41
2023-01-23T01:49:26.343Z,102915.19
2023-01-23T01:52:15.798Z,102919.84
2023-01-23T01:55:05.282Z,102922.75
2023-01-23T01:57:44.282Z,102915.16
2023-01-23T02:00:20.108Z,102913.28
2023-01-23T02:02:55.973Z,102917.56
2023-01-23T02:05:51.264Z,102924.91
2023-01-23T02:08:54.761Z,102920.25
2023-01-23T02:11:25.180Z,102921.06
2023-01-23T02:13:56.849Z,102924.81
2023-01-23T02:16:40.318Z,102921.84
2023-01-23T02:20:10.564Z,102919.16
2023-01-23T02:23:15.103Z,102916.25
2023-01-23T02:25:43.984Z,102915.19
2023-01-23T02:28:17.339Z,102920.94
2023-01-23T02:30:50.680Z,102917.75
2023-01-23T02:33:20.250Z,102921.91
2023-01-23T02:35:50.878Z,102924.31
2023-01-23T02:38:31.484Z,102920.56
2023-01-23T02:41:09.488Z,102928.97
2023-01-23T02:43:41.389Z,102924.31
2023-01-23T02:46:12.732Z,102926.13
2023-01-23T02:48:44.460Z,102927.66
2023-01-23T02:51:17.160Z,102933.94
2023-01-23T02:53:47.496Z,102940.44
2023-01-23T02:56:17.936Z,102939.34
2023-01-23T02:59:06.634Z,102951.50
2023-01-23T03:01:36.838Z,102950.66
2023-01-23T03:04:07.125Z,102957.94
2023-01-23T03:06:38.280Z,102958.09
2023-01-23T03:09:16.079Z,102956.16
2023-01-23T03:11:47.669Z,102959.13
2023-01-23T03:14:23.315Z,102950.28
2023-01-23T03:16:55.291Z,102960.16
2023-01-23T03:19:27.188Z,102959.53
2023-01-23T03:21:57.288Z,102958.09
2023-01-23T03:24:27.391Z,102958.09
2023-01-23T03:26:57.494Z,102965.25
2023-01-23T03:29:46.766Z,102956.31
2023-01-23T03:32:17.621Z,102966.56
2023-01-23T03:34:47.663Z,102967.59
2023-01-23T03:37:17.535Z,102966.72
2023-01-23T03:40:06.330Z,102979.72
2023-01-23T03:42:36.717Z,102980.13
2023-01-23T03:45:08.112Z,102984.31
2023-01-23T03:47:38.335Z,102981.59
2023-01-23T03:50:09.847Z,102988.59
2023-01-23T03:52:39.852Z,102993.44
2023-01-23T03:55:09.193Z,102987.13
2023-01-23T03:57:36.883Z,102989.41
2023-01-23T04:00:06.782Z,102998.75
2023-01-23T04:02:36.623Z,102997.91
2023-01-23T04:05:05.699Z,103000.34
2023-01-23T04:07:33.434Z,103003.41
2023-01-23T04:10:01.838Z,103003.09
2023-01-23T04:12:30.364Z,102997.91
2023-01-23T04:14:58.835Z,103008.59
2023-01-23T04:17:27.256Z,103008.78
2023-01-23T04:19:55.688Z,103010.66
2023-01-23T04:22:24.125Z,103005.69
2023-01-23T04:24:52.615Z,103015.75
2023-01-23T04:27:20.997Z,103008.75
2023-01-23T04:29:49.752Z,103012.22
2023-01-23T04:32:17.875Z,103010.28
2023-01-23T04:34:46.455Z,103006.88
2023-01-23T04:37:14.943Z,103013.16
2023-01-23T04:39:44.305Z,103005.50
2023-01-23T04:42:17.778Z,103008.00
2023-01-23T04:44:47.970Z,103014.50
2023-01-23T04:47:18.015Z,103013.16
2023-01-23T04:49:46.445Z,103017.50
2023-01-23T04:52:15.160Z,103021.91
2023-01-23T04:54:43.455Z,103025.69
2023-01-23T04:57:11.773Z,103033.56
2023-01-23T04:59:40.217Z,103029.94
2023-01-23T05:02:09.762Z,103022.34
2023-01-23T05:04:37.852Z,103020.69
2023-01-23T05:07:05.733Z,103026.13
2023-01-23T05:09:33.772Z,103026.34
2023-01-23T05:12:02.256Z,103017.75
2023-01-23T05:14:30.624Z,103016.41
2023-01-23T05:16:59.123Z,103018.47
2023-01-23T05:19:27.451Z,103019.66
2023-01-23T05:21:55.918Z,103017.59
2023-01-23T05:24:24.369Z,103014.88
2023-01-23T05:26:52.729Z,103024.72
2023-01-23T05:29:22.855Z,103014.56
2023-01-23T05:31:51.313Z,103017.22
2023-01-23T05:34:19.604Z,103027.69
2023-01-23T05:36:48.056Z,103030.97
2023-01-23T05:39:16.462Z,103028.38
2023-01-23T05:41:44.908Z,103022.91
2023-01-23T05:44:13.601Z,103023.00
2023-01-23T05:46:41.908Z,103023.78
2023-01-23T05:49:10.130Z,103030.31
2023-01-23T05:51:38.537Z,103034.53
2023-01-23T05:54:07.363Z,103038.94
2023-01-23T05:56:34.603Z,103038.06
2023-01-23T05:59:02.048Z,103052.38
2023-01-23T06:01:30.208Z,103048.38
2023-01-23T06:03:58.794Z,103052.59
2023-01-23T06:06:27.066Z,103063.13
2023-01-23T06:08:55.441Z,103061.25
2023-01-23T06:11:23.861Z,103062.63
2023-01-23T06:13:52.346Z,103072.56
2023-01-23T06:16:20.802Z,103073.34
2023-01-23T06:18:49.113Z,103070.53
2023-01-23T06:21:18.441Z,103068.97
2023-01-23T06:23:46.919Z,103079.81
2023-01-23T06:26:14.786Z,103076.69
2023-01-23T06:28:42.828Z,103077.41
2023-01-23T06:31:11.255Z,103069.75
2023-01-23T06:33:39.599Z,103080.25
2023-01-23T06:36:09.363Z,103081.53
2023-01-23T06:38:36.599Z,103080.94
2023-01-23T06:41:05.136Z,103089.66
2023-01-23T06:43:33.237Z,103090.31
2023-01-23T06:46:01.912Z,103089.41
2023-01-23T06:48:29.508Z,103100.78
2023-01-23T06:51:01.480Z,103099.88
2023-01-23T06:53:29.867Z,103105.22
2023-01-23T06:56:05.497Z,103102.28
2023-01-23T06:58:35.269Z,103103.69
2023-01-23T07:01:16.534Z,103090.19
2023-01-23T07:03:47.086Z,103091.59
2023-01-23T07:06:17.521Z,103096.00
2023-01-23T07:08:47.679Z,103097.00
2023-01-23T07:11:17.867Z,103094.03
2023-01-23T07:13:47.929Z,103109.22
2023-01-23T07:16:18.078Z,103112.16
2023-01-23T07:18:48.138Z,103110.72
2023-01-23T07:21:18.193Z,103108.41
2023-01-23T07:23:48.325Z,103113.38
2023-01-23T07:26:18.376Z,103113.25
2023-01-23T07:28:48.413Z,103115.59
2023-01-23T07:31:18.509Z,103111.94
2023-01-23T07:33:48.898Z,103116.56
2023-01-23T07:36:19.243Z,103120.91
2023-01-23T07:38:47.142Z,103115.97
2023-01-23T07:41:14.444Z,103111.31
2023-01-23T07:43:44.616Z,103116.63
2023-01-23T07:46:14.942Z,103110.66
2023-01-23T07:48:45.041Z,103116.75
2023-01-23T07:51:15.594Z,103121.84
2023-01-23T07:53:45.312Z,103125.63
2023-01-23T07:56:15.429Z,103120.00
2023-01-23T07:58:49.704Z,103118.66
2023-01-23T08:01:19.551Z,103122.88
2023-01-23T08:03:49.151Z,103127.91
2023-01-23T08:06:20.294Z,103133.81
2023-01-23T08:08:50.708Z,103121.91
2023-01-23T08:11:20.075Z,103126.09
2023-01-23T08:13:51.543Z,103134.13
2023-01-23T08:16:20.780Z,103132.41
2023-01-23T08:18:50.904Z,103135.63
2023-01-23T08:21:22.106Z,103138.34
2023-01-23T08:23:51.805Z,103139.50
2023-01-23T08:26:21.904Z,103142.66
2023-01-23T08:28:51.949Z,103150.19
2023-01-23T08:31:22.410Z,103153.09
2023-01-23T08:33:52.283Z,103163.59
2023-01-23T08:36:23.116Z,103155.94
2023-01-23T08:38:52.779Z,103166.72
2023-01-23T08:41:26.570Z,103171.09
2023-01-23T08:43:58.418Z,103183.19
2023-01-23T08:46:26.638Z,103178.56
2023-01-23T08:48:55.856Z,103178.34
2023-01-23T08:51:23.547Z,103181.09
2023-01-23T08:53:53.715Z,103180.41
2023-01-23T08:56:25.167Z,103190.47
2023-01-23T08:58:55.634Z,103193.59
2023-01-23T09:01:27.826Z,103196.03
2023-01-23T09:03:57.869Z,103199.81
2023-01-23T09:06:27.989Z,103200.25
2023-01-23T09:08:58.217Z,103206.06
2023-01-23T09:11:28.357Z,103213.69
2023-01-23T09:13:55.656Z,103223.75
2023-01-23T09:16:23.105Z,103225.19
2023-01-23T09:18:56.335Z,103230.63
2023-01-23T09:21:24.652Z,103227.69
2023-01-23T09:23:54.715Z,103238.50
2023-01-23T09:26:24.864Z,103235.31
2023-01-23T09:28:55.743Z,103235.34
2023-01-23T09:31:25.163Z,103258.28
2023-01-23T09:33:54.975Z,103248.53
2023-01-23T09:36:41.295Z,103245.25
2023-01-23T09:39:11.746Z,103244.97
2023-01-23T09:41:46.169Z,103252.41
2023-01-23T09:44:40.136Z,103249.72
2023-01-23T09:47:32.216Z,103242.91
2023-01-23T09:50:38.739Z,103248.81
2023-01-23T09:53:27.124Z,103240.28
2023-01-23T09:56:35.329Z,103244.38
2023-01-23T09:59:50.181Z,103244.78
2023-01-23T10:02:25.182Z,103246.28
2023-01-23T10:04:59.787Z,103250.59
2023-01-23T10:08:00.379Z,103253.56
2023-01-23T10:11:32.498Z,103247.84
2023-01-23T10:14:23.176Z,103249.88
2023-01-23T10:17:48.609Z,103251.91
2023-01-23T10:21:31.926Z,103254.38
2023-01-23T10:24:29.466Z,103247.13
2023-01-23T10:27:23.139Z,103250.53
2023-01-23T10:30:03.969Z,103255.03
2023-01-23T10:32:55.980Z,103258.00
2023-01-23T10:35:53.264Z,103259.66
2023-01-23T10:38:27.540Z,103256.53
2023-01-23T10:41:13.415Z,103259.97
2023-01-23T10:43:50.342Z,103264.56
2023-01-23T10:46:38.171Z,103257.97
2023-01-23T10:49:08.258Z,103261.16
2023-01-23T10:51:38.232Z,103251.47
2023-01-23T10:54:31.284Z,103248.16
2023-01-23T10:57:27.320Z,103248.34
2023-01-23T11:00:37.866Z,103246.31
2023-01-23T11:03:35.127Z,103247.34
2023-01-23T11:06:22.039Z,103243.53
2023-01-23T11:09:00.461Z,103255.88
2023-01-23T11:11:33.808Z,103250.72
2023-01-23T11:14:22.768Z,103241.66
2023-01-23T11:17:19.052Z,103243.72
2023-01-23T11:19:54.634Z,103235.13
2023-01-23T11:22:39.187Z,103238.19
2023-01-23T11:25:44.356Z,103234.81
2023-01-23T11:28:47.642Z,103227.31
2023-01-23T11:31:27.284Z,103226.19
2023-01-23T11:34:21.601Z,103223.75
2023-01-23T11:37:12.568Z,103228.94
2023-01-23T11:40:15.637Z,103220.13
2023-01-23T11:42:45.601Z,103218.25
2023-01-23T11:46:10.291Z,103222.72
2023-01-23T11:49:05.129Z,103226.09
2023-01-23T11:52:36.936Z,103224.53
2023-01-23T11:55:49.987Z,103215.03
2023-01-23T11:58:55.631Z,103221.63
2023-01-23T12:02:04.905Z,103221.88
2023-01-23T12:05:19.205Z,103215.41
2023-01-23T12:08:27.158Z,103211.41
2023-01-23T12:11:20.461Z,103201.75
2023-01-23T12:14:29.715Z,103203.22
2023-01-23T12:17:43.341Z,103203.63
2023-01-23T12:21:13.009Z,103197.84
2023-01-23T12:24:19.763Z,103195.13
2023-01-23T12:27:16.858Z,103197.25
2023-01-23T12:30:53.147Z,103202.56
2023-01-23T12:34:20.773Z,103195.88
2023-01-23T12:37:30.452Z,103198.03
2023-01-23T12:40:22.782Z,103199.94
2023-01-23T12:43:10.595Z,103195.47
2023-01-23T12:45:59.686Z,103185.16
2023-01-23T12:49:13.862Z,103185.59
2023-01-23T12:52:07.518Z,103182.22
2023-01-23T12:54:55.580Z,103185.16
2023-01-23T12:57:59.950Z,103183.69
2023-01-23T13:01:16.725Z,103190.66
2023-01-23T13:04:23.246Z,103185.78
2023-01-23T13:07:42.116Z,103189.19
2023-01-23T13:11:37.890Z,103189.19
2023-01-23T13:14:43.457Z,103195.63
2023-01-23T13:18:02.308Z,103195.00
2023-01-23T13:21:22.731Z,103195.88
2023-01-23T13:24:32.571Z,103215.22
2023-01-23T13:27:58.992Z,103201.59
2023-01-23T13:30:32.533Z,103204.97
2023-01-23T13:33:34.519Z,103208.16
2023-01-23T13:36:37.777Z,103208.78
2023-01-23T13:39:16.595Z,103201.81
2023-01-23T13:42:15.632Z,103205.56
2023-01-23T13:45:16.165Z,103206.19
2023-01-23T14:21:41.437Z,103204.44
2023-01-23T14:24:47.227Z,103207.47
2023-01-23T14:27:51.414Z,103207.88
2023-01-23T14:30:28.304Z,103212.50
2023-01-23T14:33:01.182Z,103226.53
2023-01-23T14:35:33.197Z,103218.25
2023-01-23T14:38:08.290Z,103224.38
2023-01-23T14:40:50.792Z,103215.56
2023-01-23T14:43:28.448Z,103225.03
2023-01-23T14:46:15.131Z,103225.81
2023-01-23T14:48:56.337Z,103227.69
2023-01-23T14:51:28.742Z,103226.84
2023-01-23T14:54:20.425Z,103226.44
2023-01-23T14:56:56.598Z,103234.16
2023-01-23T14:59:39.024Z,103221.13
2023-01-23T15:02:36.687Z,103230.00
2023-01-23T15:05:15.219Z,103235.66
2023-01-23T15:08:03.919Z,103238.38
2023-01-23T15:10:50.346Z,103240.66
2023-01-23T15:13:40.909Z,103234.53
2023-01-23T15:16:29.176Z,103243.16
2023-01-23T15:19:06.507Z,103251.59
2023-01-23T15:21:41.873Z,103246.72
2023-01-23T15:24:14.593Z,103251.34
2023-01-23T15:27:25.653Z,103259.53
2023-01-23T15:30:33.389Z,103254.44
2023-01-23T15:33:32.632Z,103256.97
2023-01-23T15:36:30.274Z,103259.22
2023-01-23T15:39:00.669Z,103255.53
2023-01-23T15:42:22.868Z,103259.75
2023-01-23T15:44:50.848Z,103268.09
2023-01-23T15:47:19.494Z,103254.66
2023-01-23T15:49:47.663Z,103257.53
2023-01-23T15:52:30.368Z,103263.59
2023-01-23T15:55:07.187Z,103266.34
2023-01-23T15:57:37.398Z,103265.09
2023-01-23T16:00:26.647Z,103268.19
2023-01-23T16:02:59.295Z,103263.19
2023-01-23T16:05:37.173Z,103272.00
2023-01-23T16:08:22.802Z,103274.31
2023-01-23T16:10:52.902Z,103276.63
2023-01-23T16:13:23.133Z,103275.97
2023-01-23T16:15:53.584Z,103274.91
2023-01-23T16:18:24.545Z,103282.28
2023-01-23T16:20:54.726Z,103277.19
2023-01-23T16:23:25.944Z,103277.00
2023-01-23T16:25:55.660Z,103277.47
2023-01-23T16:28:29.535Z,103283.06
2023-01-23T16:30:56.908Z,103285.41
2023-01-23T16:33:26.974Z,103282.41
2023-01-23T16:35:57.024Z,103284.13
2023-01-23T16:38:30.326Z,103282.03
2023-01-23T16:41:02.048Z,103282.59
2023-01-23T16:43:31.324Z,103287.06
2023-01-23T16:46:02.444Z,103294.00
2023-01-23T16:48:32.471Z,103296.78
2023-01-23T16:51:21.903Z,103296.34
2023-01-23T16:54:03.873Z,103292.69
2023-01-23T16:56:41.352Z,103289.06
2023-01-23T16:59:41.895Z,103288.03
2023-01-23T17:02:28.213Z,103285.28
2023-01-23T17:04:56.320Z,103295.38
2023-01-23T17:07:26.000Z,103294.53
2023-01-23T17:09:55.895Z,103303.78
2023-01-23T17:12:35.846Z,103304.59
2023-01-23T17:15:06.944Z,103305.19
2023-01-23T17:17:36.503Z,103299.34
2023-01-23T17:20:10.493Z,103304.81
2023-01-23T17:22:43.258Z,103303.13
2023-01-23T17:25:25.658Z,103306.91
2023-01-23T17:28:11.143Z,103304.53
2023-01-23T17:30:46.970Z,103315.28
2023-01-23T17:33:31.549Z,103321.22
2023-01-23T17:36:03.421Z,103315.41
2023-01-23T17:38:34.515Z,103309.69
2023-01-23T17:41:04.709Z,103307.16
2023-01-23T17:43:34.731Z,103312.16
2023-01-23T17:46:05.688Z,103310.88
2023-01-23T17:48:41.468Z,103309.41
2023-01-23T17:51:23.623Z,103308.66
2023-01-23T17:53:55.105Z,103315.28
2023-01-23T17:56:25.319Z,103313.88
2023-01-23T17:58:55.439Z,103315.09
2023-01-23T18:01:26.603Z,103312.38
2023-01-23T18:03:56.752Z,103312.81
2023-01-23T18:06:28.010Z,103314.81
2023-01-23T18:08:59.763Z,103316.25
2023-01-23T18:11:33.528Z,103314.81
2023-01-23T18:14:52.745Z,103315.22
2023-01-23T18:18:11.037Z,103312.22
2023-01-23T18:20:41.872Z,103305.91
2023-01-23T18:23:13.525Z,103310.00
2023-01-23T18:25:46.857Z,103307.94
2023-01-23T18:28:19.829Z,103311.91
2023-01-23T18:31:22.859Z,103312.75
2023-01-23T18:34:45.552Z,103312.69
2023-01-23T18:38:03.274Z,103312.88
2023-01-23T18:41:22.461Z,103314.31
2023-01-23T18:44:27.625Z,103311.78
2023-01-23T18:46:57.985Z,103311.84
2023-01-23T18:49:32.960Z,103313.94
2023-01-23T18:52:18.188Z,103310.13
2023-01-23T18:55:31.586Z,103319.22
2023-01-23T18:58:46.887Z,103310.22
2023-01-23T19:02:14.090Z,103314.75
2023-01-23T19:05:16.092Z,103314.94
2023-01-23T19:07:51.144Z,103310.47
2023-01-23T19:10:28.037Z,103313.97
2023-01-23T19:13:20.340Z,103311.78
2023-01-23T19:16:33.471Z,103311.72
2023-01-23T19:20:07.185Z,103310.47
2023-01-23T19:23:27.097Z,103319.03
2023-01-23T19:25:57.732Z,103312.56
2023-01-23T19:28:28.426Z,103320.75
2023-01-23T19:30:57.473Z,103315.28
2023-01-23T19:33:25.244Z,103318.03
2023-01-23T19:35:56.685Z,103326.22
2023-01-23T19:38:26.800Z,103328.00
2023-01-23T19:40:56.932Z,103323.94
2023-01-23T19:43:28.119Z,103322.66
2023-01-23T19:46:00.158Z,103320.56
2023-01-23T19:48:30.213Z,103319.13
2023-01-23T19:51:00.348Z,103325.38
2023-01-23T19:53:30.398Z,103325.16
2023-01-23T19:56:01.490Z,103336.03
2023-01-23T19:58:32.273Z,103330.13
2023-01-23T20:01:14.615Z,103337.63
2023-01-23T20:03:44.735Z,103340.72
2023-01-23T20:06:13.173Z,103341.78
2023-01-23T20:08:41.753Z,103346.56
2023-01-23T20:11:13.933Z,103343.56
2023-01-23T20:13:42.216Z,103339.81
2023-01-23T20:16:21.737Z,103336.19
2023-01-23T20:18:52.749Z,103353.91
2023-01-23T20:21:26.074Z,103348.66
2023-01-23T20:23:56.168Z,103341.66
2023-01-23T20:26:26.328Z,103344.53
2023-01-23T20:28:58.109Z,103338.94
2023-01-23T20:31:28.101Z,103342.31
2023-01-23T20:33:56.429Z,103347.34
2023-01-23T20:36:24.796Z,103348.78
2023-01-23T20:38:53.144Z,103351.50
2023-01-23T20:41:22.064Z,103353.41
2023-01-23T20:43:50.106Z,103355.25
2023-01-23T20:46:19.511Z,103352.81
2023-01-23T20:48:47.335Z,103350.06
2023-01-23T20:51:17.235Z,103348.38
2023-01-23T20:53:47.969Z,103355.25
2023-01-23T20:56:27.807Z,103356.56
2023-01-23T20:59:17.209Z,103360.59
2023-01-23T21:02:06.191Z,103353.84
2023-01-23T21:04:37.891Z,103358.28
2023-01-23T21:07:07.988Z,103361.19
2023-01-23T21:09:38.070Z,103370.22
2023-01-23T21:12:12.996Z,103372.69
2023-01-23T21:14:43.493Z,103372.88
2023-01-23T21:17:13.800Z,103372.88
2023-01-23T21:19:44.678Z,103380.22
2023-01-23T21:22:14.794Z,103376.84
2023-01-23T21:24:44.918Z,103380.59
2023-01-23T21:27:15.262Z,103375.78
2023-01-23T21:29:45.454Z,103373.63
2023-01-23T21:32:15.611Z,103372.16
2023-01-23T21:34:45.698Z,103370.66
2023-01-23T21:37:15.828Z,103376.28
2023-01-23T21:39:46.108Z,103369.81
2023-01-23T21:42:17.492Z,103367.72
2023-01-23T21:44:48.248Z,103367.53
2023-01-23T21:47:20.287Z,103374.41
2023-01-23T21:49:51.822Z,103374.88
2023-01-23T21:52:21.893Z,103372.31
2023-01-23T21:54:51.699Z,103367.53
2023-01-23T21:57:21.468Z,103366.03
2023-01-23T22:00:09.648Z,103375.34
2023-01-23T22:02:39.810Z,103374.69
2023-01-23T22:05:09.745Z,103369.41
2023-01-23T22:07:39.747Z,103373.81
2023-01-23T22:10:10.399Z,103368.34
2023-01-23T22:12:41.171Z,103359.31
2023-01-23T22:15:11.532Z,103361.41
2023-01-23T22:17:41.063Z,103363.28
2023-01-23T22:20:12.768Z,103363.88
2023-01-23T22:22:42.432Z,103352.09
2023-01-23T22:25:11.218Z,103365.94
2023-01-23T22:27:39.229Z,103367.44
2023-01-23T22:30:09.060Z,103365.94
2023-01-23T22:32:40.689Z,103375.63
2023-01-23T22:35:11.140Z,103369.41
2023-01-23T22:37:43.601Z,103380.59
2023-01-23T22:40:13.655Z,103382.41
2023-01-23T22:42:43.703Z,103382.59
2023-01-23T22:45:13.978Z,103382.97
2023-01-23T22:47:44.019Z,103381.28
2023-01-23T22:50:14.221Z,103383.81
2023-01-23T22:52:44.751Z,103382.31
2023-01-23T22:55:15.814Z,103381.50
2023-01-23T22:57:45.958Z,103378.25
2023-01-23T23:00:17.356Z,103371.66
2023-01-23T23:02:47.768Z,103366.41
2023-01-23T23:05:17.946Z,103367.44
2023-01-23T23:07:48.037Z,103370.75
2023-01-23T23:10:18.165Z,103376.78
2023-01-23T23:12:48.231Z,103390.88
2023-01-23T23:15:18.415Z,103379.78
2023-01-23T23:17:48.570Z,103388.53
2023-01-23T23:20:18.756Z,103387.03
2023-01-23T23:22:48.843Z,103373.97
2023-01-23T23:25:19.038Z,103371.41
2023-01-23T23:27:49.368Z,103369.16
2023-01-23T23:30:19.490Z,103368.28
2023-01-23T23:32:49.609Z,103360.50
2023-01-23T23:35:20.125Z,103357.09
2023-01-23T23:37:50.354Z,103363.50
2023-01-23T23:40:20.449Z,103363.13
2023-01-23T23:42:50.514Z,103350.91
2023-01-23T23:45:20.864Z,103352.31
2023-01-23T23:47:51.083Z,103351.56
2023-01-23T23:50:22.359Z,103354.75
2023-01-23T23:52:52.401Z,103355.13
2023-01-23T23:55:22.897Z,103340.81
2023-01-23T23:57:53.091Z,103352.88
